sensor_id;sensor_type;location;lat;lon;timestamp;temperature;humidity
51867;DHT22;52862;52.504;13.480;2023-04-24T00:00:59;12.50;99.90
51867;DHT22;52862;52.504;13.480;2023-04-24T00:03:27;12.50;99.90
51867;DHT22;52862;52.504;13.480;2023-04-24T00:05:54;12.50;99.90
51867;DHT22;52862;52.504;13.480;2023-04-24T00:08:21;12.40;99.90
51867;DHT22;52862;52.504;13.480;2023-04-24T00:10:49;12.40;99.90
51867;DHT22;52862;52.504;13.480;2023-04-24T00:13:15;12.70;99.90
51867;DHT22;52862;52.504;13.480;2023-04-24T00:15:42;12.40;99.90
51867;DHT22;52862;52.504;13.480;2023-04-24T00:18:09;12.40;99.90
51867;DHT22;52862;52.504;13.480;2023-04-24T00:20:35;12.40;99.90
51867;DHT22;52862;52.504;13.480;2023-04-24T00:23:02;12.40;99.90
51867;DHT22;52862;52.504;13.480;2023-04-24T00:25:29;12.30;99.90
51867;DHT22;52862;52.504;13.480;2023-04-24T00:27:56;12.30;99.90
51867;DHT22;52862;52.504;13.480;2023-04-24T00:30:23;12.30;99.90
51867;DHT22;52862;52.504;13.480;2023-04-24T00:32:50;12.30;99.90
51867;DHT22;52862;52.504;13.480;2023-04-24T00:35:16;12.30;99.90
51867;DHT22;52862;52.504;13.480;2023-04-24T00:37:45;12.20;99.90
51867;DHT22;52862;52.504;13.480;2023-04-24T00:40:12;12.30;99.90
51867;DHT22;52862;52.504;13.480;2023-04-24T00:42:40;12.20;99.90
51867;DHT22;52862;52.504;13.480;2023-04-24T00:45:08;12.20;99.90
51867;DHT22;52862;52.504;13.480;2023-04-24T00:47:35;12.20;99.90
51867;DHT22;52862;52.504;13.480;2023-04-24T00:50:03;12.20;99.90
51867;DHT22;52862;52.504;13.480;2023-04-24T00:52:30;12.10;99.90
51867;DHT22;52862;52.504;13.480;2023-04-24T00:54:58;12.10;99.90
51867;DHT22;52862;52.504;13.480;2023-04-24T00:57:24;12.10;99.90
51867;DHT22;52862;52.504;13.480;2023-04-24T00:59:51;12.20;99.90
51867;DHT22;52862;52.504;13.480;2023-04-24T01:02:20;12.00;99.90
51867;DHT22;52862;52.504;13.480;2023-04-24T01:04:48;12.10;99.90
51867;DHT22;52862;52.504;13.480;2023-04-24T01:07:15;11.90;99.90
51867;DHT22;52862;52.504;13.480;2023-04-24T01:09:42;12.00;99.90
51867;DHT22;52862;52.504;13.480;2023-04-24T01:12:24;11.90;99.90
51867;DHT22;52862;52.504;13.480;2023-04-24T01:14:51;11.90;99.90
51867;DHT22;52862;52.504;13.480;2023-04-24T01:17:17;11.90;99.90
51867;DHT22;52862;52.504;13.480;2023-04-24T01:19:45;11.90;99.90
51867;DHT22;52862;52.504;13.480;2023-04-24T01:22:13;11.90;99.90
51867;DHT22;52862;52.504;13.480;2023-04-24T01:24:40;12.00;99.90
51867;DHT22;52862;52.504;13.480;2023-04-24T01:27:09;12.00;99.90
51867;DHT22;52862;52.504;13.480;2023-04-24T01:29:48;12.10;99.90
51867;DHT22;52862;52.504;13.480;2023-04-24T01:32:18;12.00;99.90
51867;DHT22;52862;52.504;13.480;2023-04-24T01:34:45;12.10;99.90
51867;DHT22;52862;52.504;13.480;2023-04-24T01:37:13;12.10;99.90
51867;DHT22;52862;52.504;13.480;2023-04-24T01:39:40;12.30;99.90
51867;DHT22;52862;52.504;13.480;2023-04-24T01:42:07;12.10;99.90
51867;DHT22;52862;52.504;13.480;2023-04-24T01:44:34;12.20;99.90
51867;DHT22;52862;52.504;13.480;2023-04-24T01:47:01;12.10;99.90
51867;DHT22;52862;52.504;13.480;2023-04-24T01:49:28;12.00;99.90
51867;DHT22;52862;52.504;13.480;2023-04-24T01:51:55;12.00;99.90
51867;DHT22;52862;52.504;13.480;2023-04-24T01:54:22;12.00;99.90
51867;DHT22;52862;52.504;13.480;2023-04-24T01:56:49;11.90;99.90
51867;DHT22;52862;52.504;13.480;2023-04-24T01:59:17;12.00;99.90
51867;DHT22;52862;52.504;13.480;2023-04-24T02:01:44;12.00;99.90
51867;DHT22;52862;52.504;13.480;2023-04-24T02:04:10;12.00;99.90
51867;DHT22;52862;52.504;13.480;2023-04-24T02:06:37;12.00;99.90
51867;DHT22;52862;52.504;13.480;2023-04-24T02:09:04;12.00;99.90
51867;DHT22;52862;52.504;13.480;2023-04-24T02:11:32;12.00;99.90
51867;DHT22;52862;52.504;13.480;2023-04-24T02:13:59;11.90;99.90
51867;DHT22;52862;52.504;13.480;2023-04-24T02:16:25;12.00;99.90
51867;DHT22;52862;52.504;13.480;2023-04-24T02:18:52;12.00;99.90
51867;DHT22;52862;52.504;13.480;2023-04-24T02:21:19;12.00;99.90
51867;DHT22;52862;52.504;13.480;2023-04-24T02:23:45;12.00;99.90
51867;DHT22;52862;52.504;13.480;2023-04-24T02:26:12;12.00;99.90
51867;DHT22;52862;52.504;13.480;2023-04-24T02:28:39;12.10;99.90
51867;DHT22;52862;52.504;13.480;2023-04-24T02:31:06;12.10;99.90
51867;DHT22;52862;52.504;13.480;2023-04-24T02:33:33;12.00;99.90
51867;DHT22;52862;52.504;13.480;2023-04-24T02:35:59;12.00;99.90
51867;DHT22;52862;52.504;13.480;2023-04-24T02:38:26;12.10;99.90
51867;DHT22;52862;52.504;13.480;2023-04-24T02:40:53;12.00;99.90
51867;DHT22;52862;52.504;13.480;2023-04-24T02:43:19;12.10;99.90
51867;DHT22;52862;52.504;13.480;2023-04-24T02:45:47;12.10;99.90
51867;DHT22;52862;52.504;13.480;2023-04-24T02:48:14;12.10;99.90
51867;DHT22;52862;52.504;13.480;2023-04-24T02:50:40;12.10;99.90
51867;DHT22;52862;52.504;13.480;2023-04-24T02:53:07;12.20;99.90
51867;DHT22;52862;52.504;13.480;2023-04-24T02:55:34;12.10;99.90
51867;DHT22;52862;52.504;13.480;2023-04-24T02:58:00;12.00;99.90
51867;DHT22;52862;52.504;13.480;2023-04-24T03:00:27;12.10;99.90
51867;DHT22;52862;52.504;13.480;2023-04-24T03:02:54;12.30;99.90
51867;DHT22;52862;52.504;13.480;2023-04-24T03:05:22;12.10;99.90
51867;DHT22;52862;52.504;13.480;2023-04-24T03:07:48;12.10;99.90
51867;DHT22;52862;52.504;13.480;2023-04-24T03:10:15;12.10;99.90
51867;DHT22;52862;52.504;13.480;2023-04-24T03:12:42;12.10;99.90
51867;DHT22;52862;52.504;13.480;2023-04-24T03:15:09;12.10;99.90
51867;DHT22;52862;52.504;13.480;2023-04-24T03:17:36;12.10;99.90
51867;DHT22;52862;52.504;13.480;2023-04-24T03:20:05;12.20;99.90
51867;DHT22;52862;52.504;13.480;2023-04-24T03:22:32;12.30;99.90
51867;DHT22;52862;52.504;13.480;2023-04-24T03:24:59;12.30;99.90
51867;DHT22;52862;52.504;13.480;2023-04-24T03:27:26;12.30;99.90
51867;DHT22;52862;52.504;13.480;2023-04-24T03:29:53;12.40;99.90
51867;DHT22;52862;52.504;13.480;2023-04-24T03:32:21;12.50;99.90
51867;DHT22;52862;52.504;13.480;2023-04-24T03:34:48;12.50;99.90
51867;DHT22;52862;52.504;13.480;2023-04-24T03:37:16;12.50;99.90
51867;DHT22;52862;52.504;13.480;2023-04-24T03:39:43;12.50;99.90
51867;DHT22;52862;52.504;13.480;2023-04-24T03:42:10;12.50;99.90
51867;DHT22;52862;52.504;13.480;2023-04-24T03:44:37;12.60;99.90
51867;DHT22;52862;52.504;13.480;2023-04-24T03:47:04;12.60;99.90
51867;DHT22;52862;52.504;13.480;2023-04-24T03:49:30;12.60;99.90
51867;DHT22;52862;52.504;13.480;2023-04-24T03:51:57;12.60;99.90
51867;DHT22;52862;52.504;13.480;2023-04-24T03:54:25;12.60;99.90
51867;DHT22;52862;52.504;13.480;2023-04-24T03:56:52;12.60;99.90
51867;DHT22;52862;52.504;13.480;2023-04-24T03:59:19;12.60;99.90
51867;DHT22;52862;52.504;13.480;2023-04-24T04:01:45;12.60;99.90
51867;DHT22;52862;52.504;13.480;2023-04-24T04:04:12;12.60;99.90
51867;DHT22;52862;52.504;13.480;2023-04-24T04:06:39;12.60;99.90
51867;DHT22;52862;52.504;13.480;2023-04-24T04:09:06;12.70;99.90
51867;DHT22;52862;52.504;13.480;2023-04-24T04:11:35;12.70;99.90
51867;DHT22;52862;52.504;13.480;2023-04-24T04:14:01;12.70;99.90
51867;DHT22;52862;52.504;13.480;2023-04-24T04:16:28;12.70;99.90
51867;DHT22;52862;52.504;13.480;2023-04-24T04:18:55;12.70;99.90
51867;DHT22;52862;52.504;13.480;2023-04-24T04:21:22;12.70;99.90
51867;DHT22;52862;52.504;13.480;2023-04-24T04:23:48;12.80;99.90
51867;DHT22;52862;52.504;13.480;2023-04-24T04:26:15;12.80;99.90
51867;DHT22;52862;52.504;13.480;2023-04-24T04:28:43;12.80;99.90
51867;DHT22;52862;52.504;13.480;2023-04-24T04:31:10;12.70;99.90
51867;DHT22;52862;52.504;13.480;2023-04-24T04:33:37;12.90;99.90
51867;DHT22;52862;52.504;13.480;2023-04-24T04:36:05;12.90;99.90
51867;DHT22;52862;52.504;13.480;2023-04-24T04:38:32;12.90;99.90
51867;DHT22;52862;52.504;13.480;2023-04-24T04:40:59;12.90;99.90
51867;DHT22;52862;52.504;13.480;2023-04-24T04:43:26;13.00;99.90
51867;DHT22;52862;52.504;13.480;2023-04-24T04:45:54;12.90;99.90
51867;DHT22;52862;52.504;13.480;2023-04-24T04:48:25;12.90;99.90
51867;DHT22;52862;52.504;13.480;2023-04-24T04:50:51;13.00;99.90
51867;DHT22;52862;52.504;13.480;2023-04-24T04:53:18;13.00;99.90
51867;DHT22;52862;52.504;13.480;2023-04-24T04:55:45;13.10;99.90
51867;DHT22;52862;52.504;13.480;2023-04-24T04:58:12;13.10;99.90
51867;DHT22;52862;52.504;13.480;2023-04-24T05:00:39;13.10;99.90
51867;DHT22;52862;52.504;13.480;2023-04-24T05:03:06;13.10;99.90
51867;DHT22;52862;52.504;13.480;2023-04-24T05:05:46;13.30;99.90
51867;DHT22;52862;52.504;13.480;2023-04-24T05:08:13;14.40;99.90
51867;DHT22;52862;52.504;13.480;2023-04-24T05:10:51;13.10;99.90
51867;DHT22;52862;52.504;13.480;2023-04-24T05:13:18;13.20;99.90
51867;DHT22;52862;52.504;13.480;2023-04-24T05:15:57;13.40;99.90
51867;DHT22;52862;52.504;13.480;2023-04-24T05:18:25;13.40;99.90
51867;DHT22;52862;52.504;13.480;2023-04-24T05:20:52;13.30;99.90
51867;DHT22;52862;52.504;13.480;2023-04-24T05:23:19;13.30;99.90
51867;DHT22;52862;52.504;13.480;2023-04-24T05:25:45;13.30;99.90
51867;DHT22;52862;52.504;13.480;2023-04-24T05:28:12;13.50;99.90
51867;DHT22;52862;52.504;13.480;2023-04-24T05:30:39;13.40;99.90
51867;DHT22;52862;52.504;13.480;2023-04-24T05:33:06;13.50;99.90
51867;DHT22;52862;52.504;13.480;2023-04-24T05:35:33;13.50;99.90
51867;DHT22;52862;52.504;13.480;2023-04-24T05:38:00;13.50;99.90
51867;DHT22;52862;52.504;13.480;2023-04-24T05:40:27;13.50;99.90
51867;DHT22;52862;52.504;13.480;2023-04-24T05:42:53;13.40;99.90
51867;DHT22;52862;52.504;13.480;2023-04-24T05:45:20;13.30;99.90
51867;DHT22;52862;52.504;13.480;2023-04-24T05:47:47;13.30;99.90
51867;DHT22;52862;52.504;13.480;2023-04-24T05:50:13;13.40;99.90
51867;DHT22;52862;52.504;13.480;2023-04-24T05:52:41;13.60;99.90
51867;DHT22;52862;52.504;13.480;2023-04-24T05:55:08;13.50;99.90
51867;DHT22;52862;52.504;13.480;2023-04-24T05:57:35;13.40;99.90
51867;DHT22;52862;52.504;13.480;2023-04-24T06:00:01;13.50;99.90
51867;DHT22;52862;52.504;13.480;2023-04-24T06:02:30;13.50;99.90
51867;DHT22;52862;52.504;13.480;2023-04-24T06:04:58;13.50;99.90
51867;DHT22;52862;52.504;13.480;2023-04-24T06:07:25;13.50;99.90
51867;DHT22;52862;52.504;13.480;2023-04-24T06:09:53;13.60;99.90
51867;DHT22;52862;52.504;13.480;2023-04-24T06:12:20;13.70;99.90
51867;DHT22;52862;52.504;13.480;2023-04-24T06:14:46;13.80;99.90
51867;DHT22;52862;52.504;13.480;2023-04-24T06:17:13;13.90;99.90
51867;DHT22;52862;52.504;13.480;2023-04-24T06:19:43;14.00;99.90
51867;DHT22;52862;52.504;13.480;2023-04-24T06:22:10;14.10;99.90
51867;DHT22;52862;52.504;13.480;2023-04-24T06:24:37;14.20;99.90
51867;DHT22;52862;52.504;13.480;2023-04-24T06:27:04;14.30;99.90
51867;DHT22;52862;52.504;13.480;2023-04-24T06:29:30;14.50;99.90
51867;DHT22;52862;52.504;13.480;2023-04-24T06:31:57;14.40;99.90
51867;DHT22;52862;52.504;13.480;2023-04-24T06:34:24;14.30;99.90
51867;DHT22;52862;52.504;13.480;2023-04-24T06:36:51;13.80;99.90
51867;DHT22;52862;52.504;13.480;2023-04-24T06:39:17;14.20;99.90
51867;DHT22;52862;52.504;13.480;2023-04-24T06:41:44;14.30;99.90
51867;DHT22;52862;52.504;13.480;2023-04-24T06:44:12;14.50;99.90
51867;DHT22;52862;52.504;13.480;2023-04-24T06:46:40;14.80;99.90
51867;DHT22;52862;52.504;13.480;2023-04-24T06:49:07;14.90;99.90
51867;DHT22;52862;52.504;13.480;2023-04-24T06:51:34;15.10;99.90
51867;DHT22;52862;52.504;13.480;2023-04-24T06:54:01;15.20;99.90
51867;DHT22;52862;52.504;13.480;2023-04-24T06:56:28;15.40;99.90
51867;DHT22;52862;52.504;13.480;2023-04-24T06:58:55;15.30;99.90
51867;DHT22;52862;52.504;13.480;2023-04-24T07:01:22;15.70;99.90
51867;DHT22;52862;52.504;13.480;2023-04-24T07:03:49;15.70;99.90
51867;DHT22;52862;52.504;13.480;2023-04-24T07:06:16;15.80;99.90
51867;DHT22;52862;52.504;13.480;2023-04-24T07:08:44;16.10;99.90
51867;DHT22;52862;52.504;13.480;2023-04-24T07:11:11;16.30;99.90
51867;DHT22;52862;52.504;13.480;2023-04-24T07:13:38;16.30;99.90
51867;DHT22;52862;52.504;13.480;2023-04-24T07:16:07;15.90;99.90
51867;DHT22;52862;52.504;13.480;2023-04-24T07:18:35;16.10;99.90
51867;DHT22;52862;52.504;13.480;2023-04-24T07:21:02;16.00;99.90
51867;DHT22;52862;52.504;13.480;2023-04-24T07:23:29;15.90;99.90
51867;DHT22;52862;52.504;13.480;2023-04-24T07:25:56;16.10;99.90
51867;DHT22;52862;52.504;13.480;2023-04-24T07:28:23;13.50;99.90
51867;DHT22;52862;52.504;13.480;2023-04-24T07:30:50;16.40;99.90
51867;DHT22;52862;52.504;13.480;2023-04-24T07:33:19;16.50;99.90
51867;DHT22;52862;52.504;13.480;2023-04-24T07:35:47;16.30;99.90
51867;DHT22;52862;52.504;13.480;2023-04-24T07:38:13;16.20;99.90
51867;DHT22;52862;52.504;13.480;2023-04-24T07:40:40;16.10;99.90
51867;DHT22;52862;52.504;13.480;2023-04-24T07:43:07;15.80;99.90
51867;DHT22;52862;52.504;13.480;2023-04-24T07:45:34;16.00;99.90
51867;DHT22;52862;52.504;13.480;2023-04-24T07:48:03;15.80;99.90
51867;DHT22;52862;52.504;13.480;2023-04-24T07:50:31;15.80;99.90
51867;DHT22;52862;52.504;13.480;2023-04-24T07:52:59;15.90;99.90
51867;DHT22;52862;52.504;13.480;2023-04-24T07:55:25;16.40;99.90
51867;DHT22;52862;52.504;13.480;2023-04-24T07:57:54;16.60;99.90
51867;DHT22;52862;52.504;13.480;2023-04-24T08:00:21;16.70;99.90
51867;DHT22;52862;52.504;13.480;2023-04-24T08:02:48;16.90;99.90
51867;DHT22;52862;52.504;13.480;2023-04-24T08:05:15;17.10;99.90
51867;DHT22;52862;52.504;13.480;2023-04-24T08:07:42;17.10;99.90
51867;DHT22;52862;52.504;13.480;2023-04-24T08:10:10;17.10;99.90
51867;DHT22;52862;52.504;13.480;2023-04-24T08:12:37;17.20;99.90
51867;DHT22;52862;52.504;13.480;2023-04-24T08:15:05;17.40;99.90
51867;DHT22;52862;52.504;13.480;2023-04-24T08:17:32;17.30;99.90
51867;DHT22;52862;52.504;13.480;2023-04-24T08:19:59;16.90;99.90
51867;DHT22;52862;52.504;13.480;2023-04-24T08:22:27;16.90;99.90
51867;DHT22;52862;52.504;13.480;2023-04-24T08:24:54;16.70;99.90
51867;DHT22;52862;52.504;13.480;2023-04-24T08:27:22;16.70;99.90
51867;DHT22;52862;52.504;13.480;2023-04-24T08:29:49;16.90;99.90
51867;DHT22;52862;52.504;13.480;2023-04-24T08:32:16;17.40;99.90
51867;DHT22;52862;52.504;13.480;2023-04-24T08:34:43;17.80;99.90
51867;DHT22;52862;52.504;13.480;2023-04-24T08:37:10;17.80;99.90
51867;DHT22;52862;52.504;13.480;2023-04-24T08:39:37;17.40;99.90
51867;DHT22;52862;52.504;13.480;2023-04-24T08:42:05;15.10;99.90
51867;DHT22;52862;52.504;13.480;2023-04-24T08:44:36;17.90;99.90
51867;DHT22;52862;52.504;13.480;2023-04-24T08:47:03;18.10;99.90
51867;DHT22;52862;52.504;13.480;2023-04-24T08:49:31;18.10;99.90
51867;DHT22;52862;52.504;13.480;2023-04-24T08:51:57;18.10;99.90
51867;DHT22;52862;52.504;13.480;2023-04-24T08:54:47;18.20;99.90
51867;DHT22;52862;52.504;13.480;2023-04-24T08:57:14;18.60;99.90
51867;DHT22;52862;52.504;13.480;2023-04-24T08:59:43;18.90;99.90
51867;DHT22;52862;52.504;13.480;2023-04-24T09:02:11;18.60;99.90
51867;DHT22;52862;52.504;13.480;2023-04-24T09:04:40;18.20;99.90
51867;DHT22;52862;52.504;13.480;2023-04-24T09:07:08;18.10;99.90
51867;DHT22;52862;52.504;13.480;2023-04-24T09:09:38;18.10;99.90
51867;DHT22;52862;52.504;13.480;2023-04-24T09:12:05;18.20;99.90
51867;DHT22;52862;52.504;13.480;2023-04-24T09:14:33;18.20;99.90
51867;DHT22;52862;52.504;13.480;2023-04-24T09:17:00;18.20;99.90
51867;DHT22;52862;52.504;13.480;2023-04-24T09:19:27;17.60;99.90
51867;DHT22;52862;52.504;13.480;2023-04-24T09:21:54;17.60;99.90
51867;DHT22;52862;52.504;13.480;2023-04-24T09:24:21;17.60;99.90
51867;DHT22;52862;52.504;13.480;2023-04-24T09:26:49;17.50;99.90
51867;DHT22;52862;52.504;13.480;2023-04-24T09:29:23;17.50;99.90
51867;DHT22;52862;52.504;13.480;2023-04-24T09:31:50;17.70;99.90
51867;DHT22;52862;52.504;13.480;2023-04-24T09:34:22;17.60;99.90
51867;DHT22;52862;52.504;13.480;2023-04-24T09:36:50;17.50;99.90
51867;DHT22;52862;52.504;13.480;2023-04-24T09:39:17;17.30;99.90
51867;DHT22;52862;52.504;13.480;2023-04-24T09:41:47;17.30;99.90
51867;DHT22;52862;52.504;13.480;2023-04-24T09:44:16;17.20;99.90
51867;DHT22;52862;52.504;13.480;2023-04-24T09:46:44;17.20;99.90
51867;DHT22;52862;52.504;13.480;2023-04-24T09:49:13;17.00;99.90
51867;DHT22;52862;52.504;13.480;2023-04-24T09:51:42;17.20;99.90
51867;DHT22;52862;52.504;13.480;2023-04-24T09:54:14;17.30;99.90
51867;DHT22;52862;52.504;13.480;2023-04-24T09:56:43;17.30;99.90
51867;DHT22;52862;52.504;13.480;2023-04-24T09:59:11;17.20;99.90
51867;DHT22;52862;52.504;13.480;2023-04-24T10:01:41;17.00;99.90
51867;DHT22;52862;52.504;13.480;2023-04-24T10:04:17;16.90;99.90
51867;DHT22;52862;52.504;13.480;2023-04-24T10:06:45;17.30;99.90
51867;DHT22;52862;52.504;13.480;2023-04-24T10:09:13;17.70;99.90
51867;DHT22;52862;52.504;13.480;2023-04-24T10:11:42;17.60;99.90
51867;DHT22;52862;52.504;13.480;2023-04-24T10:14:12;17.50;99.90
51867;DHT22;52862;52.504;13.480;2023-04-24T10:16:39;17.30;99.90
51867;DHT22;52862;52.504;13.480;2023-04-24T10:19:07;17.80;99.90
51867;DHT22;52862;52.504;13.480;2023-04-24T10:21:36;17.50;99.90
51867;DHT22;52862;52.504;13.480;2023-04-24T10:24:09;17.70;99.90
51867;DHT22;52862;52.504;13.480;2023-04-24T10:26:36;17.70;99.90
51867;DHT22;52862;52.504;13.480;2023-04-24T10:29:05;17.50;99.90
51867;DHT22;52862;52.504;13.480;2023-04-24T10:31:37;17.50;99.90
51867;DHT22;52862;52.504;13.480;2023-04-24T10:34:04;17.80;99.90
51867;DHT22;52862;52.504;13.480;2023-04-24T10:36:32;18.30;99.90
51867;DHT22;52862;52.504;13.480;2023-04-24T10:39:07;18.40;99.90
51867;DHT22;52862;52.504;13.480;2023-04-24T10:41:37;17.80;99.90
51867;DHT22;52862;52.504;13.480;2023-04-24T10:44:04;17.60;99.90
51867;DHT22;52862;52.504;13.480;2023-04-24T10:46:32;17.80;99.90
51867;DHT22;52862;52.504;13.480;2023-04-24T10:48:58;17.80;99.90
51867;DHT22;52862;52.504;13.480;2023-04-24T10:51:47;17.60;99.90
51867;DHT22;52862;52.504;13.480;2023-04-24T10:54:24;17.30;99.90
51867;DHT22;52862;52.504;13.480;2023-04-24T10:56:52;17.40;99.90
51867;DHT22;52862;52.504;13.480;2023-04-24T10:59:26;17.40;99.90
51867;DHT22;52862;52.504;13.480;2023-04-24T11:01:53;17.30;99.90
51867;DHT22;52862;52.504;13.480;2023-04-24T11:04:29;17.20;99.90
51867;DHT22;52862;52.504;13.480;2023-04-24T11:06:57;17.30;99.90
51867;DHT22;52862;52.504;13.480;2023-04-24T11:09:27;17.50;99.90
51867;DHT22;52862;52.504;13.480;2023-04-24T11:12:04;17.70;99.90
51867;DHT22;52862;52.504;13.480;2023-04-24T11:15:02;18.20;99.90
51867;DHT22;52862;52.504;13.480;2023-04-24T11:17:34;18.70;99.90
51867;DHT22;52862;52.504;13.480;2023-04-24T11:20:03;19.20;99.90
51867;DHT22;52862;52.504;13.480;2023-04-24T11:22:53;19.00;99.90
51867;DHT22;52862;52.504;13.480;2023-04-24T11:25:21;18.70;99.90
51867;DHT22;52862;52.504;13.480;2023-04-24T11:27:50;19.00;99.90
51867;DHT22;52862;52.504;13.480;2023-04-24T11:30:29;18.90;99.90
51867;DHT22;52862;52.504;13.480;2023-04-24T11:33:02;18.60;99.90
51867;DHT22;52862;52.504;13.480;2023-04-24T11:35:29;18.30;99.90
51867;DHT22;52862;52.504;13.480;2023-04-24T11:37:56;17.90;99.90
51867;DHT22;52862;52.504;13.480;2023-04-24T11:40:27;17.70;99.90
51867;DHT22;52862;52.504;13.480;2023-04-24T11:42:54;17.30;99.90
51867;DHT22;52862;52.504;13.480;2023-04-24T11:45:23;16.20;99.90
51867;DHT22;52862;52.504;13.480;2023-04-24T11:47:50;16.10;99.90
51867;DHT22;52862;52.504;13.480;2023-04-24T11:50:18;16.00;99.90
51867;DHT22;52862;52.504;13.480;2023-04-24T11:52:46;16.20;99.90
51867;DHT22;52862;52.504;13.480;2023-04-24T11:55:27;16.90;99.90
51867;DHT22;52862;52.504;13.480;2023-04-24T11:57:56;17.70;99.90
51867;DHT22;52862;52.504;13.480;2023-04-24T12:00:24;18.30;99.90
51867;DHT22;52862;52.504;13.480;2023-04-24T12:03:02;18.40;99.90
51867;DHT22;52862;52.504;13.480;2023-04-24T12:05:30;18.60;99.90
51867;DHT22;52862;52.504;13.480;2023-04-24T12:07:58;19.00;99.90
51867;DHT22;52862;52.504;13.480;2023-04-24T12:10:27;19.20;99.90
51867;DHT22;52862;52.504;13.480;2023-04-24T12:12:56;19.30;99.90
51867;DHT22;52862;52.504;13.480;2023-04-24T12:15:23;19.50;99.90
51867;DHT22;52862;52.504;13.480;2023-04-24T12:17:52;19.50;99.90
51867;DHT22;52862;52.504;13.480;2023-04-24T12:20:24;19.90;99.90
51867;DHT22;52862;52.504;13.480;2023-04-24T12:22:52;20.30;99.90
51867;DHT22;52862;52.504;13.480;2023-04-24T12:25:21;19.30;99.90
51867;DHT22;52862;52.504;13.480;2023-04-24T12:27:53;19.10;99.90
51867;DHT22;52862;52.504;13.480;2023-04-24T12:30:21;19.60;99.90
51867;DHT22;52862;52.504;13.480;2023-04-24T12:32:52;20.20;99.90
51867;DHT22;52862;52.504;13.480;2023-04-24T12:35:23;20.30;99.90
51867;DHT22;52862;52.504;13.480;2023-04-24T12:37:50;20.60;99.90
51867;DHT22;52862;52.504;13.480;2023-04-24T12:40:17;20.80;99.90
51867;DHT22;52862;52.504;13.480;2023-04-24T12:42:45;20.60;99.90
51867;DHT22;52862;52.504;13.480;2023-04-24T12:45:13;20.00;99.90
51867;DHT22;52862;52.504;13.480;2023-04-24T12:47:41;19.90;99.90
51867;DHT22;52862;52.504;13.480;2023-04-24T12:50:09;19.30;99.90
51867;DHT22;52862;52.504;13.480;2023-04-24T12:52:36;19.30;99.90
51867;DHT22;52862;52.504;13.480;2023-04-24T12:55:04;19.10;99.90
51867;DHT22;52862;52.504;13.480;2023-04-24T12:57:31;18.90;99.90
51867;DHT22;52862;52.504;13.480;2023-04-24T12:59:58;18.60;99.90
51867;DHT22;52862;52.504;13.480;2023-04-24T13:02:27;18.70;99.90
51867;DHT22;52862;52.504;13.480;2023-04-24T13:04:54;18.80;99.90
51867;DHT22;52862;52.504;13.480;2023-04-24T13:07:21;19.20;99.90
51867;DHT22;52862;52.504;13.480;2023-04-24T13:09:49;19.70;99.90
51867;DHT22;52862;52.504;13.480;2023-04-24T13:12:16;20.40;99.90
51867;DHT22;52862;52.504;13.480;2023-04-24T13:14:43;19.80;97.30
51867;DHT22;52862;52.504;13.480;2023-04-24T13:17:10;19.80;98.40
51867;DHT22;52862;52.504;13.480;2023-04-24T13:19:39;19.00;96.50
51867;DHT22;52862;52.504;13.480;2023-04-24T13:22:08;19.10;96.80
51867;DHT22;52862;52.504;13.480;2023-04-24T13:24:35;19.30;96.60
51867;DHT22;52862;52.504;13.480;2023-04-24T13:27:04;20.30;95.70
51867;DHT22;52862;52.504;13.480;2023-04-24T13:29:30;20.50;93.70
51867;DHT22;52862;52.504;13.480;2023-04-24T13:31:57;20.40;93.90
51867;DHT22;52862;52.504;13.480;2023-04-24T13:34:25;20.20;93.10
51867;DHT22;52862;52.504;13.480;2023-04-24T13:36:53;19.70;93.70
51867;DHT22;52862;52.504;13.480;2023-04-24T13:39:21;19.30;93.90
51867;DHT22;52862;52.504;13.480;2023-04-24T13:41:48;19.60;94.50
51867;DHT22;52862;52.504;13.480;2023-04-24T13:44:15;19.90;92.80
51867;DHT22;52862;52.504;13.480;2023-04-24T13:46:42;20.10;91.40
51867;DHT22;52862;52.504;13.480;2023-04-24T13:49:10;19.90;91.90
51867;DHT22;52862;52.504;13.480;2023-04-24T13:51:38;19.80;90.20
51867;DHT22;52862;52.504;13.480;2023-04-24T13:54:04;20.30;90.10
51867;DHT22;52862;52.504;13.480;2023-04-24T13:56:32;20.40;88.10
51867;DHT22;52862;52.504;13.480;2023-04-24T13:58:59;20.30;87.60
51867;DHT22;52862;52.504;13.480;2023-04-24T14:01:25;21.00;87.40
51867;DHT22;52862;52.504;13.480;2023-04-24T14:03:53;21.60;87.10
51867;DHT22;52862;52.504;13.480;2023-04-24T14:06:20;22.50;84.00
51867;DHT22;52862;52.504;13.480;2023-04-24T14:09:14;23.70;78.70
51867;DHT22;52862;52.504;13.480;2023-04-24T14:11:42;25.60;74.40
51867;DHT22;52862;52.504;13.480;2023-04-24T14:14:08;24.50;73.50
51867;DHT22;52862;52.504;13.480;2023-04-24T14:16:35;24.40;75.10
51867;DHT22;52862;52.504;13.480;2023-04-24T14:19:08;23.60;75.40
51867;DHT22;52862;52.504;13.480;2023-04-24T14:21:37;23.50;76.40
51867;DHT22;52862;52.504;13.480;2023-04-24T14:24:04;24.00;72.70
51867;DHT22;52862;52.504;13.480;2023-04-24T14:26:31;22.70;77.50
51867;DHT22;52862;52.504;13.480;2023-04-24T14:29:10;21.10;81.20
51867;DHT22;52862;52.504;13.480;2023-04-24T14:31:43;20.00;79.90
51867;DHT22;52862;52.504;13.480;2023-04-24T14:34:10;18.90;82.60
51867;DHT22;52862;52.504;13.480;2023-04-24T14:36:37;18.30;85.10
51867;DHT22;52862;52.504;13.480;2023-04-24T14:39:09;18.20;86.80
51867;DHT22;52862;52.504;13.480;2023-04-24T14:41:39;20.10;82.50
51867;DHT22;52862;52.504;13.480;2023-04-24T14:44:07;20.50;77.60
51867;DHT22;52862;52.504;13.480;2023-04-24T14:46:34;20.70;77.80
51867;DHT22;52862;52.504;13.480;2023-04-24T14:49:01;19.90;78.90
51867;DHT22;52862;52.504;13.480;2023-04-24T14:51:28;19.00;81.80
51867;DHT22;52862;52.504;13.480;2023-04-24T14:54:01;18.50;83.40
51867;DHT22;52862;52.504;13.480;2023-04-24T14:56:28;19.20;84.90
51867;DHT22;52862;52.504;13.480;2023-04-24T14:58:55;21.00;80.60
51867;DHT22;52862;52.504;13.480;2023-04-24T15:01:23;22.50;76.60
51867;DHT22;52862;52.504;13.480;2023-04-24T15:03:50;22.30;78.20
51867;DHT22;52862;52.504;13.480;2023-04-24T15:06:18;23.60;73.30
51867;DHT22;52862;52.504;13.480;2023-04-24T15:08:45;22.30;74.60
51867;DHT22;52862;52.504;13.480;2023-04-24T15:11:15;19.90;80.70
51867;DHT22;52862;52.504;13.480;2023-04-24T15:13:41;19.10;85.40
51867;DHT22;52862;52.504;13.480;2023-04-24T15:16:12;19.10;85.10
51867;DHT22;52862;52.504;13.480;2023-04-24T15:18:40;18.30;86.00
51867;DHT22;52862;52.504;13.480;2023-04-24T15:21:07;18.00;88.00